sensor_id;sensor_type;location;lat;lon;timestamp;pressure;altitude;pressure_sealevel;temperature;humidity
79374;BME280;68844;53.128;17.958;2023-11-19T00:02:26;101755.35;;;-1.95;90.04
79374;BME280;68844;53.128;17.958;2023-11-19T00:04:53;101761.19;;;-1.97;89.99
79374;BME280;68844;53.128;17.958;2023-11-19T00:07:20;101760.48;;;-1.98;89.78
79374;BME280;68844;53.128;17.958;2023-11-19T00:09:46;101747.17;;;-2.01;89.56
79374;BME280;68844;53.128;17.958;2023-11-19T00:12:13;101739.31;;;-2.09;89.66
79374;BME280;68844;53.128;17.958;2023-11-19T00:14:40;101733.94;;;-2.11;90.27
79374;BME280;68844;53.128;17.958;2023-11-19T00:17:07;101733.11;;;-2.09;90.31
79374;BME280;68844;53.128;17.958;2023-11-19T00:19:34;101727.31;;;-2.03;90.46
79374;BME280;68844;53.128;17.958;2023-11-19T00:22:00;101732.34;;;-1.99;90.66
79374;BME280;68844;53.128;17.958;2023-11-19T00:24:30;101728.41;;;-1.96;90.98
79374;BME280;68844;53.128;17.958;2023-11-19T00:26:57;101724.27;;;-1.96;90.92
79374;BME280;68844;53.128;17.958;2023-11-19T00:29:23;101728.23;;;-1.95;90.89
79374;BME280;68844;53.128;17.958;2023-11-19T00:31:51;101728.10;;;-1.91;90.95
79374;BME280;68844;53.128;17.958;2023-11-19T00:34:18;101721.75;;;-1.89;91.09
79374;BME280;68844;53.128;17.958;2023-11-19T00:36:47;101720.04;;;-1.86;91.68
79374;BME280;68844;53.128;17.958;2023-11-19T00:39:15;101713.45;;;-1.88;91.58
79374;BME280;68844;53.128;17.958;2023-11-19T00:41:42;101711.55;;;-1.89;91.36
79374;BME280;68844;53.128;17.958;2023-11-19T00:44:09;101706.91;;;-1.88;91.24
79374;BME280;68844;53.128;17.958;2023-11-19T00:46:35;101697.58;;;-1.87;91.23
79374;BME280;68844;53.128;17.958;2023-11-19T00:49:03;101692.92;;;-1.87;91.40
79374;BME280;68844;53.128;17.958;2023-11-19T00:51:30;101686.19;;;-1.88;91.41
79374;BME280;68844;53.128;17.958;2023-11-19T00:54:00;101681.19;;;-1.88;91.61
79374;BME280;68844;53.128;17.958;2023-11-19T00:56:27;101684.31;;;-1.85;91.33
79374;BME280;68844;53.128;17.958;2023-11-19T00:58:55;101686.06;;;-1.84;91.25
79374;BME280;68844;53.128;17.958;2023-11-19T01:01:22;101683.09;;;-1.86;91.30
79374;BME280;68844;53.128;17.958;2023-11-19T01:03:49;101679.11;;;-1.89;91.33
79374;BME280;68844;53.128;17.958;2023-11-19T01:06:29;101671.83;;;-1.92;91.38
79374;BME280;68844;53.128;17.958;2023-11-19T01:08:56;101661.11;;;-1.93;91.16
79374;BME280;68844;53.128;17.958;2023-11-19T01:11:24;101649.74;;;-1.91;91.27
79374;BME280;68844;53.128;17.958;2023-11-19T01:13:52;101648.02;;;-1.90;91.43
79374;BME280;68844;53.128;17.958;2023-11-19T01:16:19;101640.08;;;-1.92;91.61
79374;BME280;68844;53.128;17.958;2023-11-19T01:18:49;101637.45;;;-1.97;91.68
79374;BME280;68844;53.128;17.958;2023-11-19T01:21:16;101643.63;;;-2.01;91.59
79374;BME280;68844;53.128;17.958;2023-11-19T01:23:42;101638.95;;;-2.00;91.43
79374;BME280;68844;53.128;17.958;2023-11-19T01:26:12;101637.41;;;-2.02;91.29
79374;BME280;68844;53.128;17.958;2023-11-19T01:28:39;101637.53;;;-2.07;91.32
79374;BME280;68844;53.128;17.958;2023-11-19T01:31:09;101631.81;;;-2.10;91.57
79374;BME280;68844;53.128;17.958;2023-11-19T01:33:36;101634.36;;;-2.13;91.53
79374;BME280;68844;53.128;17.958;2023-11-19T01:36:03;101635.05;;;-2.13;91.54
79374;BME280;68844;53.128;17.958;2023-11-19T01:38:30;101629.70;;;-2.13;91.48
79374;BME280;68844;53.128;17.958;2023-11-19T01:40:57;101624.88;;;-2.14;91.66
79374;BME280;68844;53.128;17.958;2023-11-19T01:43:31;101617.27;;;-2.15;91.72
79374;BME280;68844;53.128;17.958;2023-11-19T01:46:00;101607.07;;;-2.17;91.82
79374;BME280;68844;53.128;17.958;2023-11-19T01:48:27;101591.91;;;-2.15;91.86
79374;BME280;68844;53.128;17.958;2023-11-19T01:50:54;101586.73;;;-2.15;91.88
79374;BME280;68844;53.128;17.958;2023-11-19T01:53:21;101578.27;;;-2.17;91.79
79374;BME280;68844;53.128;17.958;2023-11-19T01:55:48;101574.09;;;-2.20;91.92
79374;BME280;68844;53.128;17.958;2023-11-19T01:58:16;101567.36;;;-2.21;91.97
79374;BME280;68844;53.128;17.958;2023-11-19T02:00:44;101565.28;;;-2.23;91.92
79374;BME280;68844;53.128;17.958;2023-11-19T02:03:11;101562.20;;;-2.21;91.92
79374;BME280;68844;53.128;17.958;2023-11-19T02:05:38;101558.23;;;-2.21;91.87
79374;BME280;68844;53.128;17.958;2023-11-19T02:08:06;101556.66;;;-2.21;92.14
79374;BME280;68844;53.128;17.958;2023-11-19T02:10:33;101553.39;;;-2.21;92.15
79374;BME280;68844;53.128;17.958;2023-11-19T02:13:00;101555.98;;;-2.21;91.97
79374;BME280;68844;53.128;17.958;2023-11-19T02:15:27;101558.93;;;-2.18;91.95
79374;BME280;68844;53.128;17.958;2023-11-19T02:17:54;101560.13;;;-2.18;91.97
79374;BME280;68844;53.128;17.958;2023-11-19T02:20:21;101550.97;;;-2.20;92.03
79374;BME280;68844;53.128;17.958;2023-11-19T02:22:48;101535.79;;;-2.22;92.01
79374;BME280;68844;53.128;17.958;2023-11-19T02:25:21;101519.21;;;-2.23;91.82
79374;BME280;68844;53.128;17.958;2023-11-19T02:27:58;101512.85;;;-2.21;91.64
79374;BME280;68844;53.128;17.958;2023-11-19T02:30:26;101506.80;;;-2.20;92.02
79374;BME280;68844;53.128;17.958;2023-11-19T02:32:53;101505.95;;;-2.20;92.07
79374;BME280;68844;53.128;17.958;2023-11-19T02:35:20;101511.33;;;-2.17;92.60
79374;BME280;68844;53.128;17.958;2023-11-19T02:37:48;101508.77;;;-2.12;92.58
79374;BME280;68844;53.128;17.958;2023-11-19T02:40:14;101500.17;;;-2.10;92.67
79374;BME280;68844;53.128;17.958;2023-11-19T02:42:41;101492.56;;;-2.10;92.86
79374;BME280;68844;53.128;17.958;2023-11-19T02:45:08;101490.34;;;-2.09;93.22
79374;BME280;68844;53.128;17.958;2023-11-19T02:47:41;101478.64;;;-2.04;93.12
79374;BME280;68844;53.128;17.958;2023-11-19T02:50:11;101468.47;;;-2.00;93.30
79374;BME280;68844;53.128;17.958;2023-11-19T02:52:41;101462.27;;;-1.98;93.71
79374;BME280;68844;53.128;17.958;2023-11-19T02:55:10;101457.45;;;-1.96;93.56
79374;BME280;68844;53.128;17.958;2023-11-19T02:57:39;101454.55;;;-1.90;93.53
79374;BME280;68844;53.128;17.958;2023-11-19T03:00:19;101458.70;;;-1.87;93.62
79374;BME280;68844;53.128;17.958;2023-11-19T03:02:50;101452.85;;;-1.84;93.43
79374;BME280;68844;53.128;17.958;2023-11-19T03:05:27;101447.50;;;-1.81;93.62
79374;BME280;68844;53.128;17.958;2023-11-19T03:07:56;101448.58;;;-1.74;93.49
79374;BME280;68844;53.128;17.958;2023-11-19T03:10:23;101442.39;;;-1.70;93.42
79374;BME280;68844;53.128;17.958;2023-11-19T03:12:51;101435.48;;;-1.68;93.46
79374;BME280;68844;53.128;17.958;2023-11-19T03:15:17;101425.13;;;-1.68;93.48
79374;BME280;68844;53.128;17.958;2023-11-19T03:17:44;101422.91;;;-1.64;93.37
79374;BME280;68844;53.128;17.958;2023-11-19T03:20:12;101408.77;;;-1.58;93.30
79374;BME280;68844;53.128;17.958;2023-11-19T03:22:43;101398.58;;;-1.55;93.48
79374;BME280;68844;53.128;17.958;2023-11-19T03:25:10;101390.80;;;-1.57;93.30
79374;BME280;68844;53.128;17.958;2023-11-19T03:27:37;101379.23;;;-1.53;93.31
79374;BME280;68844;53.128;17.958;2023-11-19T03:30:10;101372.00;;;-1.49;93.39
79374;BME280;68844;53.128;17.958;2023-11-19T03:32:38;101365.08;;;-1.48;93.37
79374;BME280;68844;53.128;17.958;2023-11-19T03:35:05;101355.77;;;-1.51;93.08
79374;BME280;68844;53.128;17.958;2023-11-19T03:37:35;101352.99;;;-1.49;93.13
79374;BME280;68844;53.128;17.958;2023-11-19T03:40:03;101351.44;;;-1.48;92.89
79374;BME280;68844;53.128;17.958;2023-11-19T03:42:30;101341.42;;;-1.47;92.91
79374;BME280;68844;53.128;17.958;2023-11-19T03:44:57;101337.45;;;-1.49;92.96
79374;BME280;68844;53.128;17.958;2023-11-19T03:47:24;101332.96;;;-1.48;92.68
79374;BME280;68844;53.128;17.958;2023-11-19T03:49:51;101337.64;;;-1.44;92.61
79374;BME280;68844;53.128;17.958;2023-11-19T03:52:18;101337.65;;;-1.39;92.63
79374;BME280;68844;53.128;17.958;2023-11-19T03:54:45;101338.50;;;-1.42;92.38
79374;BME280;68844;53.128;17.958;2023-11-19T03:57:12;101339.36;;;-1.42;92.16
79374;BME280;68844;53.128;17.958;2023-11-19T03:59:39;101339.38;;;-1.39;91.90
79374;BME280;68844;53.128;17.958;2023-11-19T04:02:06;101332.11;;;-1.35;92.13
79374;BME280;68844;53.128;17.958;2023-11-19T04:04:33;101321.23;;;-1.32;91.92
79374;BME280;68844;53.128;17.958;2023-11-19T04:07:01;101315.70;;;-1.35;91.56
79374;BME280;68844;53.128;17.958;2023-11-19T04:09:29;101312.42;;;-1.33;91.41
79374;BME280;68844;53.128;17.958;2023-11-19T04:11:57;101313.13;;;-1.30;91.22
79374;BME280;68844;53.128;17.958;2023-11-19T04:14:23;101309.16;;;-1.31;91.23
79374;BME280;68844;53.128;17.958;2023-11-19T04:16:50;101310.70;;;-1.30;90.73
79374;BME280;68844;53.128;17.958;2023-11-19T04:19:18;101305.52;;;-1.29;90.61
79374;BME280;68844;53.128;17.958;2023-11-19T04:21:45;101293.25;;;-1.24;90.36
79374;BME280;68844;53.128;17.958;2023-11-19T04:24:13;101286.52;;;-1.26;90.42
79374;BME280;68844;53.128;17.958;2023-11-19T04:26:41;101276.67;;;-1.25;90.09
79374;BME280;68844;53.128;17.958;2023-11-19T04:29:09;101274.24;;;-1.25;90.24
79374;BME280;68844;53.128;17.958;2023-11-19T04:31:37;101277.17;;;-1.21;90.28
79374;BME280;68844;53.128;17.958;2023-11-19T04:34:05;101270.29;;;-1.18;90.32
79374;BME280;68844;53.128;17.958;2023-11-19T04:36:33;101271.66;;;-1.19;90.17
79374;BME280;68844;53.128;17.958;2023-11-19T04:39:00;101270.10;;;-1.17;89.93
79374;BME280;68844;53.128;17.958;2023-11-19T04:41:27;101260.59;;;-1.12;89.81
79374;BME280;68844;53.128;17.958;2023-11-19T04:43:54;101256.77;;;-1.14;89.81
79374;BME280;68844;53.128;17.958;2023-11-19T04:46:22;101245.73;;;-1.17;89.51
79374;BME280;68844;53.128;17.958;2023-11-19T04:48:50;101239.69;;;-1.16;89.30
79374;BME280;68844;53.128;17.958;2023-11-19T04:51:17;101231.21;;;-1.11;89.40
79374;BME280;68844;53.128;17.958;2023-11-19T04:53:44;101227.07;;;-1.11;89.58
79374;BME280;68844;53.128;17.958;2023-11-19T04:56:11;101220.48;;;-1.05;88.89
79374;BME280;68844;53.128;17.958;2023-11-19T04:58:38;101216.85;;;-1.04;89.07
79374;BME280;68844;53.128;17.958;2023-11-19T05:01:04;101211.66;;;-1.01;88.95
79374;BME280;68844;53.128;17.958;2023-11-19T05:03:32;101202.51;;;-1.04;88.94
79374;BME280;68844;53.128;17.958;2023-11-19T05:05:58;101197.48;;;-1.02;88.99
79374;BME280;68844;53.128;17.958;2023-11-19T05:08:25;101195.75;;;-0.96;89.16
79374;BME280;68844;53.128;17.958;2023-11-19T05:10:52;101194.02;;;-0.95;88.97
79374;BME280;68844;53.128;17.958;2023-11-19T05:13:19;101194.20;;;-0.97;89.01
79374;BME280;68844;53.128;17.958;2023-11-19T05:15:45;101192.77;;;-0.86;88.76
79374;BME280;68844;53.128;17.958;2023-11-19T05:18:12;101190.55;;;-0.91;88.93
79374;BME280;68844;53.128;17.958;2023-11-19T05:20:38;101191.93;;;-0.92;88.99
79374;BME280;68844;53.128;17.958;2023-11-19T05:23:05;101183.95;;;-0.86;89.15
79374;BME280;68844;53.128;17.958;2023-11-19T05:25:32;101174.63;;;-0.88;88.90
79374;BME280;68844;53.128;17.958;2023-11-19T05:27:58;101167.19;;;-0.88;89.07
79374;BME280;68844;53.128;17.958;2023-11-19T05:30:25;101161.28;;;-0.79;88.53
79374;BME280;68844;53.128;17.958;2023-11-19T05:32:52;101156.96;;;-0.78;88.75
79374;BME280;68844;53.128;17.958;2023-11-19T05:35:18;101156.43;;;-0.78;88.66
79374;BME280;68844;53.128;17.958;2023-11-19T05:37:45;101158.69;;;-0.79;88.41
79374;BME280;68844;53.128;17.958;2023-11-19T05:40:12;101158.16;;;-0.77;88.37
79374;BME280;68844;53.128;17.958;2023-11-19T05:42:41;101157.64;;;-0.76;88.78
79374;BME280;68844;53.128;17.958;2023-11-19T05:45:10;101155.38;;;-0.74;88.66
79374;BME280;68844;53.128;17.958;2023-11-19T05:47:38;101152.99;;;-0.79;88.75
79374;BME280;68844;53.128;17.958;2023-11-19T05:50:04;101150.05;;;-0.80;88.75
79374;BME280;68844;53.128;17.958;2023-11-19T05:52:32;101149.30;;;-0.69;88.90
79374;BME280;68844;53.128;17.958;2023-11-19T05:55:00;101144.65;;;-0.71;89.10
79374;BME280;68844;53.128;17.958;2023-11-19T05:57:30;101140.52;;;-0.72;89.14
79374;BME280;68844;53.128;17.958;2023-11-19T05:59:57;101137.55;;;-0.67;88.88
79374;BME280;68844;53.128;17.958;2023-11-19T06:02:25;101132.70;;;-0.68;89.07
79374;BME280;68844;53.128;17.958;2023-11-19T06:04:53;101129.77;;;-0.69;88.83
79374;BME280;68844;53.128;17.958;2023-11-19T06:07:20;101125.24;;;-0.63;88.87
79374;BME280;68844;53.128;17.958;2023-11-19T06:09:46;101121.10;;;-0.64;89.02
79374;BME280;68844;53.128;17.958;2023-11-19T06:12:13;101111.60;;;-0.64;88.87
79374;BME280;68844;53.128;17.958;2023-11-19T06:14:40;101097.56;;;-0.61;88.78
79374;BME280;68844;53.128;17.958;2023-11-19T06:17:07;101087.52;;;-0.59;88.61
79374;BME280;68844;53.128;17.958;2023-11-19T06:19:35;101077.99;;;-0.58;88.63
79374;BME280;68844;53.128;17.958;2023-11-19T06:22:01;101078.85;;;-0.58;88.43
79374;BME280;68844;53.128;17.958;2023-11-19T06:24:28;101076.08;;;-0.54;88.05
79374;BME280;68844;53.128;17.958;2023-11-19T06:26:55;101070.70;;;-0.53;88.01
79374;BME280;68844;53.128;17.958;2023-11-19T06:29:22;101063.77;;;-0.50;88.01
79374;BME280;68844;53.128;17.958;2023-11-19T06:31:48;101064.46;;;-0.51;88.02
79374;BME280;68844;53.128;17.958;2023-11-19T06:34:15;101060.13;;;-0.50;87.71
79374;BME280;68844;53.128;17.958;2023-11-19T06:36:42;101056.77;;;-0.38;87.38
79374;BME280;68844;53.128;17.958;2023-11-19T06:39:11;101047.27;;;-0.41;87.39
79374;BME280;68844;53.128;17.958;2023-11-19T06:41:38;101046.92;;;-0.40;87.27
79374;BME280;68844;53.128;17.958;2023-11-19T06:44:05;101042.85;;;-0.30;86.59
79374;BME280;68844;53.128;17.958;2023-11-19T06:46:32;101042.68;;;-0.29;86.85
79374;BME280;68844;53.128;17.958;2023-11-19T06:48:59;101040.27;;;-0.31;86.87
79374;BME280;68844;53.128;17.958;2023-11-19T06:51:26;101034.15;;;-0.24;86.39
79374;BME280;68844;53.128;17.958;2023-11-19T06:53:53;101029.27;;;-0.19;85.98
79374;BME280;68844;53.128;17.958;2023-11-19T06:56:23;101022.15;;;-0.17;86.28
79374;BME280;68844;53.128;17.958;2023-11-19T06:58:51;101020.70;;;-0.11;85.94
79374;BME280;68844;53.128;17.958;2023-11-19T07:01:18;101015.47;;;-0.06;85.49
79374;BME280;68844;53.128;17.958;2023-11-19T07:03:48;101007.65;;;-0.01;85.63
79374;BME280;68844;53.128;17.958;2023-11-19T07:06:14;101006.70;;;0.06;85.25
79374;BME280;68844;53.128;17.958;2023-11-19T07:08:41;100997.02;;;0.06;85.08
79374;BME280;68844;53.128;17.958;2023-11-19T07:11:12;100992.70;;;0.05;85.19
79374;BME280;68844;53.128;17.958;2023-11-19T07:13:40;100988.98;;;0.14;84.90
79374;BME280;68844;53.128;17.958;2023-11-19T07:16:07;100986.56;;;0.12;84.68
79374;BME280;68844;53.128;17.958;2023-11-19T07:18:36;100983.89;;;0.04;85.06
79374;BME280;68844;53.128;17.958;2023-11-19T07:21:04;100981.77;;;0.07;85.68
79374;BME280;68844;53.128;17.958;2023-11-19T07:23:31;100975.86;;;0.09;85.46
79374;BME280;68844;53.128;17.958;2023-11-19T07:25:57;100979.11;;;0.13;84.79
79374;BME280;68844;53.128;17.958;2023-11-19T07:28:24;100976.69;;;0.11;84.51
79374;BME280;68844;53.128;17.958;2023-11-19T07:30:51;100972.05;;;0.09;85.22
79374;BME280;68844;53.128;17.958;2023-11-19T07:33:18;100974.25;;;0.14;85.28
79374;BME280;68844;53.128;17.958;2023-11-19T07:35:44;100970.17;;;0.22;84.58
79374;BME280;68844;53.128;17.958;2023-11-19T07:38:12;100965.39;;;0.16;83.92
79374;BME280;68844;53.128;17.958;2023-11-19T07:40:39;100965.00;;;0.19;84.82
79374;BME280;68844;53.128;17.958;2023-11-19T07:43:05;100963.77;;;0.23;85.32
79374;BME280;68844;53.128;17.958;2023-11-19T07:45:33;100960.41;;;0.28;85.20
79374;BME280;68844;53.128;17.958;2023-11-19T07:48:01;100949.31;;;0.29;84.59
79374;BME280;68844;53.128;17.958;2023-11-19T07:50:31;100944.25;;;0.32;83.96
79374;BME280;68844;53.128;17.958;2023-11-19T07:52:58;100938.14;;;0.36;84.12
79374;BME280;68844;53.128;17.958;2023-11-19T07:55:26;100934.05;;;0.32;84.06
79374;BME280;68844;53.128;17.958;2023-11-19T07:57:54;100925.05;;;0.30;84.22
79374;BME280;68844;53.128;17.958;2023-11-19T08:00:20;100922.41;;;0.34;84.18
79374;BME280;68844;53.128;17.958;2023-11-19T08:02:47;100914.33;;;0.42;84.04
79374;BME280;68844;53.128;17.958;2023-11-19T08:05:14;100909.39;;;0.37;83.98
79374;BME280;68844;53.128;17.958;2023-11-19T08:07:40;100904.52;;;0.38;84.02
79374;BME280;68844;53.128;17.958;2023-11-19T08:10:08;100892.60;;;0.47;84.47
79374;BME280;68844;53.128;17.958;2023-11-19T08:12:36;100891.80;;;0.56;83.45
79374;BME280;68844;53.128;17.958;2023-11-19T08:15:03;100894.67;;;0.49;83.58
79374;BME280;68844;53.128;17.958;2023-11-19T08:17:31;100895.38;;;0.48;84.09
79374;BME280;68844;53.128;17.958;2023-11-19T08:19:57;100888.40;;;0.64;83.22
79374;BME280;68844;53.128;17.958;2023-11-19T08:22:26;100890.27;;;0.54;83.55
79374;BME280;68844;53.128;17.958;2023-11-19T08:24:53;100886.70;;;0.60;83.03
79374;BME280;68844;53.128;17.958;2023-11-19T08:27:20;100881.45;;;0.66;83.09
79374;BME280;68844;53.128;17.958;2023-11-19T08:29:54;100871.97;;;0.73;82.66
79374;BME280;68844;53.128;17.958;2023-11-19T08:32:27;100866.73;;;0.77;81.85
79374;BME280;68844;53.128;17.958;2023-11-19T08:34:54;100864.80;;;0.66;82.12
79374;BME280;68844;53.128;17.958;2023-11-19T08:37:23;100863.09;;;0.75;82.80
79374;BME280;68844;53.128;17.958;2023-11-19T08:39:50;100861.47;;;0.69;83.00
79374;BME280;68844;53.128;17.958;2023-11-19T08:42:17;100855.84;;;0.74;82.18
79374;BME280;68844;53.128;17.958;2023-11-19T08:44:43;100844.96;;;0.71;82.11
79374;BME280;68844;53.128;17.958;2023-11-19T08:47:17;100836.44;;;0.73;82.60
79374;BME280;68844;53.128;17.958;2023-11-19T08:49:47;100826.50;;;0.88;82.05
79374;BME280;68844;53.128;17.958;2023-11-19T08:52:15;100823.33;;;0.80;82.06
79374;BME280;68844;53.128;17.958;2023-11-19T08:54:44;100817.36;;;0.96;81.36
79374;BME280;68844;53.128;17.958;2023-11-19T08:57:13;100812.88;;;0.94;81.89
79374;BME280;68844;53.128;17.958;2023-11-19T08:59:39;100808.95;;;1.01;81.94
79374;BME280;68844;53.128;17.958;2023-11-19T09:02:06;100815.85;;;1.22;80.62
79374;BME280;68844;53.128;17.958;2023-11-19T09:04:34;100807.77;;;1.29;80.03
79374;BME280;68844;53.128;17.958;2023-11-19T09:07:04;100810.16;;;1.21;80.90
79374;BME280;68844;53.128;17.958;2023-11-19T09:09:31;100805.52;;;1.28;81.42
79374;BME280;68844;53.128;17.958;2023-11-19T09:12:01;100799.48;;;1.27;81.29
79374;BME280;68844;53.128;17.958;2023-11-19T09:14:29;100796.52;;;1.37;81.45
79374;BME280;68844;53.128;17.958;2023-11-19T09:16:57;100796.72;;;1.35;80.82
79374;BME280;68844;53.128;17.958;2023-11-19T09:19:24;100791.55;;;1.33;80.93
79374;BME280;68844;53.128;17.958;2023-11-19T09:21:53;100781.82;;;1.35;80.72
79374;BME280;68844;53.128;17.958;2023-11-19T09:24:20;100777.55;;;1.30;81.30
79374;BME280;68844;53.128;17.958;2023-11-19T09:26:47;100765.75;;;1.31;81.42
79374;BME280;68844;53.128;17.958;2023-11-19T09:29:14;100756.84;;;1.34;81.38
79374;BME280;68844;53.128;17.958;2023-11-19T09:31:41;100753.39;;;1.42;82.07
79374;BME280;68844;53.128;17.958;2023-11-19T09:34:07;100746.20;;;1.71;80.84
79374;BME280;68844;53.128;17.958;2023-11-19T09:38:02;100731.86;;;1.60;80.87
79374;BME280;68844;53.128;17.958;2023-11-19T09:40:28;100730.41;;;1.53;81.44
79374;BME280;68844;53.128;17.958;2023-11-19T09:42:55;100724.13;;;1.65;81.23
79374;BME280;68844;53.128;17.958;2023-11-19T09:45:26;100718.54;;;1.67;81.50
79374;BME280;68844;53.128;17.958;2023-11-19T09:47:55;100711.22;;;1.68;81.37
79374;BME280;68844;53.128;17.958;2023-11-19T09:50:23;100708.62;;;1.83;80.62
79374;BME280;68844;53.128;17.958;2023-11-19T09:52:50;100701.67;;;1.75;80.47
79374;BME280;68844;53.128;17.958;2023-11-19T09:55:17;100694.66;;;1.70;81.39
79374;BME280;68844;53.128;17.958;2023-11-19T09:57:44;100691.23;;;1.69;81.03
79374;BME280;68844;53.128;17.958;2023-11-19T10:00:13;100683.45;;;1.68;81.26
79374;BME280;68844;53.128;17.958;2023-11-19T10:02:42;100677.79;;;1.80;80.79
79374;BME280;68844;53.128;17.958;2023-11-19T10:05:12;100674.91;;;1.69;81.04
79374;BME280;68844;53.128;17.958;2023-11-19T10:07:41;100670.91;;;1.69;81.05
79374;BME280;68844;53.128;17.958;2023-11-19T10:10:08;100670.21;;;1.70;81.20
79374;BME280;68844;53.128;17.958;2023-11-19T10:12:35;100663.16;;;1.67;81.05
79374;BME280;68844;53.128;17.958;2023-11-19T10:15:02;100659.89;;;1.74;80.87
79374;BME280;68844;53.128;17.958;2023-11-19T10:17:29;100654.12;;;1.75;80.98
79374;BME280;68844;53.128;17.958;2023-11-19T10:19:59;100655.79;;;1.78;81.51
79374;BME280;68844;53.128;17.958;2023-11-19T10:22:28;100651.60;;;1.87;81.00
79374;BME280;68844;53.128;17.958;2023-11-19T10:24:55;100650.27;;;1.91;79.96
79374;BME280;68844;53.128;17.958;2023-11-19T10:27:24;100648.11;;;1.87;80.34
79374;BME280;68844;53.128;17.958;2023-11-19T10:29:52;100642.05;;;1.86;80.25
79374;BME280;68844;53.128;17.958;2023-11-19T10:32:19;100633.39;;;1.78;80.51
79374;BME280;68844;53.128;17.958;2023-11-19T10:34:46;100631.68;;;1.77;80.55
79374;BME280;68844;53.128;17.958;2023-11-19T10:37:28;100627.79;;;1.72;81.21
79374;BME280;68844;53.128;17.958;2023-11-19T10:39:58;100625.05;;;1.71;81.14
79374;BME280;68844;53.128;17.958;2023-11-19T10:42:25;100622.86;;;1.61;81.13
79374;BME280;68844;53.128;17.958;2023-11-19T10:44:52;100620.08;;;1.67;81.08
79374;BME280;68844;53.128;17.958;2023-11-19T10:47:19;100615.86;;;1.71;81.32
79374;BME280;68844;53.128;17.958;2023-11-19T10:49:46;100612.59;;;1.62;81.17
79374;BME280;68844;53.128;17.958;2023-11-19T10:52:19;100610.36;;;1.53;81.27
79374;BME280;68844;53.128;17.958;2023-11-19T10:54:50;100606.69;;;1.54;82.00
79374;BME280;68844;53.128;17.958;2023-11-19T10:57:21;100605.78;;;1.56;82.00
79374;BME280;68844;53.128;17.958;2023-11-19T10:59:52;100603.36;;;1.47;82.47
79374;BME280;68844;53.128;17.958;2023-11-19T11:02:24;100594.73;;;1.37;83.02
79374;BME280;68844;53.128;17.958;2023-11-19T11:04:51;100589.61;;;1.34;83.54
79374;BME280;68844;53.128;17.958;2023-11-19T11:07:21;100586.91;;;1.30;83.73
79374;BME280;68844;53.128;17.958;2023-11-19T11:09:51;100579.66;;;1.21;84.38
79374;BME280;68844;53.128;17.958;2023-11-19T11:12:21;100575.04;;;1.18;84.45
79374;BME280;68844;53.128;17.958;2023-11-19T11:14:48;100569.00;;;1.08;85.63
79374;BME280;68844;53.128;17.958;2023-11-19T11:17:17;100567.14;;;0.98;85.61
79374;BME280;68844;53.128;17.958;2023-11-19T11:19:44;100553.87;;;0.95;85.57
79374;BME280;68844;53.128;17.958;2023-11-19T11:22:11;100549.87;;;0.95;86.06
79374;BME280;68844;53.128;17.958;2023-11-19T11:24:59;100543.61;;;0.88;87.24
79374;BME280;68844;53.128;17.958;2023-11-19T11:31:08;100528.98;;;0.74;88.09
79374;BME280;68844;53.128;17.958;2023-11-19T11:36:44;100512.73;;;0.55;89.07
79374;BME280;68844;53.128;17.958;2023-11-19T11:39:15;100505.02;;;0.60;89.49
79374;BME280;68844;53.128;17.958;2023-11-19T11:41:42;100496.27;;;0.46;90.17
79374;BME280;68844;53.128;17.958;2023-11-19T11:44:09;100489.59;;;0.44;89.93
79374;BME280;68844;53.128;17.958;2023-11-19T11:49:07;100479.27;;;0.40;90.84
79374;BME280;68844;53.128;17.958;2023-11-19T11:57:07;100463.41;;;0.45;90.97
79374;BME280;68844;53.128;17.958;2023-11-19T11:59:50;100459.93;;;0.36;90.95
79374;BME280;68844;53.128;17.958;2023-11-19T12:02:21;100452.63;;;0.38;91.35
79374;BME280;68844;53.128;17.958;2023-11-19T12:04:52;100449.83;;;0.40;91.43
79374;BME280;68844;53.128;17.958;2023-11-19T12:07:24;100445.91;;;0.36;91.50
79374;BME280;68844;53.128;17.958;2023-11-19T12:10:06;100444.92;;;0.33;91.69
79374;BME280;68844;53.128;17.958;2023-11-19T12:12:39;100443.14;;;0.36;91.67
79374;BME280;68844;53.128;17.958;2023-11-19T12:15:08;100430.13;;;0.37;91.92
79374;BME280;68844;53.128;17.958;2023-11-19T12:17:46;100414.58;;;0.35;91.67
79374;BME280;68844;53.128;17.958;2023-11-19T12:20:17;100404.45;;;0.39;91.76
79374;BME280;68844;53.128;17.958;2023-11-19T12:22:45;100391.69;;;0.37;92.26
79374;BME280;68844;53.128;17.958;2023-11-19T12:25:13;100382.11;;;0.40;92.13
79374;BME280;68844;53.128;17.958;2023-11-19T12:27:41;100390.94;;;0.39;92.22
79374;BME280;68844;53.128;17.958;2023-11-19T12:30:08;100393.24;;;0.37;92.43
79374;BME280;68844;53.128;17.958;2023-11-19T12:32:43;100380.13;;;0.35;92.22
79374;BME280;68844;53.128;17.958;2023-11-19T12:35:11;100365.19;;;0.37;92.66
79374;BME280;68844;53.128;17.958;2023-11-19T12:37:44;100374.08;;;0.34;92.54
79374;BME280;68844;53.128;17.958;2023-11-19T12:42:38;100421.27;;;0.30;92.60
79374;BME280;68844;53.128;17.958;2023-11-19T12:45:05;100429.25;;;0.29;92.83
79374;BME280;68844;53.128;17.958;2023-11-19T12:47:32;100402.39;;;0.31;93.10
79374;BME280;68844;53.128;17.958;2023-11-19T12:49:59;100386.30;;;0.30;93.00
79374;BME280;68844;53.128;17.958;2023-11-19T12:52:26;100378.48;;;0.38;92.87
79374;BME280;68844;53.128;17.958;2023-11-19T12:54:53;100371.85;;;0.41;92.97
79374;BME280;68844;53.128;17.958;2023-11-19T12:57:19;100368.61;;;0.39;93.03
79374;BME280;68844;53.128;17.958;2023-11-19T12:59:55;100367.16;;;0.42;92.94
79374;BME280;68844;53.128;17.958;2023-11-19T13:02:23;100367.01;;;0.41;93.16
79374;BME280;68844;53.128;17.958;2023-11-19T13:04:49;100370.01;;;0.38;93.12
79374;BME280;68844;53.128;17.958;2023-11-19T13:07:20;100367.71;;;0.40;93.18
79374;BME280;68844;53.128;17.958;2023-11-19T13:09:48;100359.20;;;0.41;93.00